createdAt,value
2018-10-09T00:02:21.666Z,13.00
2018-10-09T00:04:50.890Z,12.00
2018-10-09T00:07:20.108Z,14.50
2018-10-09T00:09:49.356Z,16.50
2018-10-09T00:12:18.577Z,15.50
2018-10-09T00:14:47.785Z,12.00
2018-10-09T00:17:17.097Z,14.00
2018-10-09T00:19:46.329Z,13.50
2018-10-09T00:22:15.617Z,12.00
2018-10-09T00:24:44.830Z,10.75
2018-10-09T00:27:14.049Z,10.75
2018-10-09T00:29:43.287Z,12.50
2018-10-09T00:32:12.545Z,11.00
2018-10-09T00:34:41.750Z,11.75
2018-10-09T00:37:10.949Z,14.00
2018-10-09T00:39:40.153Z,11.75
2018-10-09T00:42:09.412Z,12.25
2018-10-09T00:44:38.670Z,15.50
2018-10-09T00:47:07.906Z,12.75
2018-10-09T00:49:37.148Z,12.75
2018-10-09T00:52:06.408Z,13.25
2018-10-09T00:54:35.654Z,11.75
2018-10-09T00:57:04.900Z,14.00
2018-10-09T00:59:34.121Z,11.25
2018-10-09T01:02:03.380Z,11.25
2018-10-09T01:04:32.574Z,13.50
2018-10-09T01:07:01.871Z,11.75
2018-10-09T01:09:31.117Z,11.75
2018-10-09T01:12:00.556Z,13.50
2018-10-09T01:14:29.773Z,11.00
2018-10-09T01:16:58.953Z,12.75
2018-10-09T01:19:28.153Z,12.75
2018-10-09T01:21:57.355Z,13.25
2018-10-09T01:24:26.572Z,11.25
2018-10-09T01:26:55.773Z,12.75
2018-10-09T01:29:24.982Z,12.75
2018-10-09T01:31:54.298Z,10.50
2018-10-09T01:34:23.506Z,12.75
2018-10-09T01:36:52.761Z,10.00
2018-10-09T01:39:22.038Z,11.00
2018-10-09T01:41:51.305Z,12.75
2018-10-09T01:44:21.481Z,9.00
2018-10-09T01:46:50.759Z,8.00
2018-10-09T01:49:19.992Z,12.25
2018-10-09T01:51:49.180Z,11.00
2018-10-09T01:54:18.374Z,11.75
2018-10-09T01:56:47.558Z,12.75
2018-10-09T01:59:16.790Z,12.75
2018-10-09T02:01:46.030Z,11.00
2018-10-09T02:04:15.266Z,14.25
2018-10-09T02:06:44.454Z,14.75
2018-10-09T02:09:13.674Z,11.00
2018-10-09T02:11:43.058Z,11.25
2018-10-09T02:14:12.304Z,13.75
2018-10-09T02:16:41.493Z,14.75
2018-10-09T02:19:10.725Z,14.75
2018-10-09T02:21:39.967Z,15.25
2018-10-09T02:24:09.244Z,14.50
2018-10-09T02:26:38.454Z,16.25
2018-10-09T02:29:07.675Z,12.75
2018-10-09T02:31:36.934Z,11.25
2018-10-09T02:34:06.145Z,14.75
2018-10-09T02:36:35.362Z,11.00
2018-10-09T02:39:06.594Z,11.50
2018-10-09T02:41:35.842Z,16.25
2018-10-09T02:44:05.060Z,16.75
2018-10-09T02:46:34.276Z,14.75
2018-10-09T02:49:03.481Z,15.25
2018-10-09T02:51:32.696Z,14.00
2018-10-09T02:54:01.916Z,16.75
2018-10-09T02:56:31.090Z,14.75
2018-10-09T02:59:00.292Z,11.00
2018-10-09T03:01:29.492Z,16.75
2018-10-09T03:03:58.725Z,14.75
2018-10-09T03:06:27.976Z,14.75
2018-10-09T03:08:57.196Z,16.75
2018-10-09T03:11:26.429Z,16.75
2018-10-09T03:13:55.671Z,16.75
2018-10-09T03:16:24.912Z,14.75
2018-10-09T03:18:54.091Z,15.75
2018-10-09T03:21:23.312Z,15.25
2018-10-09T03:23:52.577Z,17.75
2018-10-09T03:26:21.816Z,19.50
2018-10-09T03:28:51.008Z,17.25
2018-10-09T03:31:20.210Z,15.00
2018-10-09T03:33:49.463Z,15.75
2018-10-09T03:36:18.705Z,18.75
2018-10-09T03:38:47.897Z,18.75
2018-10-09T03:41:17.097Z,17.75
2018-10-09T03:43:46.296Z,22.75
2018-10-09T03:46:15.492Z,20.25
2018-10-09T03:48:44.694Z,22.50
2018-10-09T03:51:13.909Z,22.00
2018-10-09T03:53:43.096Z,24.50
2018-10-09T03:56:12.276Z,20.75
2018-10-09T03:58:41.465Z,18.75
2018-10-09T04:01:10.676Z,20.25
2018-10-09T04:03:39.886Z,21.25
2018-10-09T04:06:09.128Z,20.75
2018-10-09T04:08:38.367Z,20.75
2018-10-09T04:11:07.538Z,20.25
2018-10-09T04:13:37.212Z,17.50
2018-10-09T04:16:06.746Z,19.25
2018-10-09T04:18:35.951Z,23.25
2018-10-09T04:21:05.160Z,21.75
2018-10-09T04:23:34.428Z,18.75
2018-10-09T04:26:03.640Z,22.75
2018-10-09T04:28:32.872Z,20.75
2018-10-09T04:31:02.218Z,20.25
2018-10-09T04:33:31.425Z,17.75
2018-10-09T04:36:00.625Z,21.75
2018-10-09T04:38:29.947Z,18.75
2018-10-09T04:40:59.175Z,22.25
2018-10-09T04:43:28.395Z,21.75
2018-10-09T04:45:57.642Z,21.75
2018-10-09T04:48:26.820Z,23.25
2018-10-09T04:50:56.031Z,17.00
2018-10-09T04:53:25.243Z,24.75
2018-10-09T04:55:54.470Z,21.75
2018-10-09T04:58:23.751Z,18.75
2018-10-09T05:00:52.977Z,21.75
2018-10-09T05:03:22.257Z,19.25
2018-10-09T05:05:51.462Z,20.25
2018-10-09T05:08:20.697Z,29.00
2018-10-09T05:10:49.916Z,24.25
2018-10-09T05:13:19.142Z,21.75
2018-10-09T05:15:48.358Z,28.75
2018-10-09T05:18:17.621Z,24.25
2018-10-09T05:20:46.860Z,26.25
2018-10-09T05:23:16.161Z,24.75
2018-10-09T05:25:45.399Z,23.25
2018-10-09T05:28:14.642Z,28.25
2018-10-09T05:30:43.834Z,24.25
2018-10-09T05:33:13.091Z,23.25
2018-10-09T05:35:42.316Z,24.75
2018-10-09T05:38:11.630Z,28.75
2018-10-09T05:40:40.826Z,30.50
2018-10-09T05:43:10.056Z,26.75
2018-10-09T05:45:40.272Z,20.75
2018-10-09T05:48:10.737Z,22.75
2018-10-09T05:50:40.000Z,20.75
2018-10-09T05:53:09.958Z,28.75
2018-10-09T05:55:39.164Z,30.25
2018-10-09T05:58:08.649Z,25.25
2018-10-09T06:00:37.780Z,21.75
2018-10-09T06:03:07.250Z,22.75
2018-10-09T06:05:36.464Z,20.50
2018-10-09T06:08:05.683Z,19.25
2018-10-09T06:10:34.927Z,24.25
2018-10-09T06:13:04.208Z,27.75
2018-10-09T06:15:33.533Z,19.50
2018-10-09T06:18:02.703Z,28.25
2018-10-09T06:20:31.934Z,22.75
2018-10-09T06:23:01.183Z,24.75
2018-10-09T06:25:30.495Z,29.75
2018-10-09T06:27:59.806Z,29.75
2018-10-09T06:30:29.046Z,28.75
2018-10-09T06:32:58.277Z,26.75
2018-10-09T06:35:27.504Z,29.75
2018-10-09T06:37:56.703Z,23.25
2018-10-09T06:40:25.958Z,26.75
2018-10-09T06:42:55.271Z,29.75
2018-10-09T06:45:24.641Z,33.75
2018-10-09T06:47:53.916Z,30.25
2018-10-09T06:50:23.165Z,27.75
2018-10-09T06:52:52.392Z,30.75
2018-10-09T06:55:21.642Z,32.75
2018-10-09T06:57:50.861Z,28.75
2018-10-09T07:00:20.156Z,36.00
2018-10-09T07:02:49.287Z,31.50
2018-10-09T07:05:18.541Z,32.00
2018-10-09T07:07:47.883Z,32.00
2018-10-09T07:10:17.241Z,24.75
2018-10-09T07:12:46.460Z,28.50
2018-10-09T07:15:15.726Z,28.00
2018-10-09T07:17:45.019Z,28.50
2018-10-09T07:20:14.367Z,29.50
2018-10-09T07:22:43.660Z,28.00
2018-10-09T07:25:12.895Z,32.00
2018-10-09T07:27:42.175Z,33.75
2018-10-09T07:30:11.835Z,37.25
2018-10-09T07:32:42.028Z,31.00
2018-10-09T07:35:11.754Z,26.50
2018-10-09T07:37:41.092Z,33.75
2018-10-09T07:40:10.584Z,30.75
2018-10-09T07:42:39.824Z,32.75
2018-10-09T07:45:09.867Z,32.25
2018-10-09T07:47:39.118Z,31.75
2018-10-09T07:50:08.370Z,35.00
2018-10-09T07:52:37.610Z,37.00
2018-10-09T07:55:06.898Z,44.25
2018-10-09T07:57:36.158Z,69.75
2018-10-09T08:00:05.481Z,61.50
2018-10-09T08:02:34.766Z,48.00
2018-10-09T08:05:04.083Z,44.25
2018-10-09T08:07:33.344Z,36.75
2018-10-09T08:10:02.594Z,34.75
2018-10-09T08:12:31.825Z,36.75
2018-10-09T08:15:01.064Z,36.75
2018-10-09T08:17:30.320Z,39.25
2018-10-09T08:19:59.562Z,39.75
2018-10-09T08:22:28.824Z,40.00
2018-10-09T08:24:57.979Z,39.75
2018-10-09T08:27:27.183Z,37.75
2018-10-09T08:29:56.387Z,36.50
2018-10-09T08:32:25.716Z,32.25
2018-10-09T08:34:54.877Z,36.00
2018-10-09T08:37:24.104Z,38.25
2018-10-09T08:39:53.350Z,38.75
2018-10-09T08:42:22.634Z,39.75
2018-10-09T08:44:56.611Z,41.00
2018-10-09T08:47:25.931Z,42.00
2018-10-09T08:49:55.210Z,39.50
2018-10-09T08:52:24.515Z,41.25
2018-10-09T08:54:53.755Z,38.25
2018-10-09T08:57:23.043Z,40.25
2018-10-09T08:59:52.269Z,38.25
2018-10-09T09:02:21.514Z,39.75
2018-10-09T09:04:50.757Z,38.00
2018-10-09T09:07:19.972Z,38.75
2018-10-09T09:09:49.207Z,37.25
2018-10-09T09:12:18.453Z,37.75
2018-10-09T09:14:47.671Z,38.00
2018-10-09T09:17:17.014Z,37.00
2018-10-09T09:19:46.206Z,38.75
2018-10-09T09:22:15.471Z,35.75
2018-10-09T09:24:44.697Z,34.25
2018-10-09T09:27:14.040Z,31.25
2018-10-09T09:29:43.141Z,32.25
2018-10-09T09:32:12.393Z,33.75
2018-10-09T09:34:41.608Z,33.75
2018-10-09T09:37:10.859Z,33.00
2018-10-09T09:39:40.092Z,31.75
2018-10-09T09:42:09.311Z,30.75
2018-10-09T09:44:38.550Z,30.75
2018-10-09T09:47:07.774Z,29.25
2018-10-09T09:49:36.966Z,26.75
2018-10-09T09:52:06.393Z,27.75
2018-10-09T09:54:35.582Z,27.25
2018-10-09T09:57:04.854Z,28.25
2018-10-09T09:59:34.126Z,28.75
2018-10-09T10:02:03.422Z,27.75
2018-10-09T10:04:32.638Z,28.00
2018-10-09T10:07:01.879Z,26.75
2018-10-09T10:09:31.106Z,27.50
2018-10-09T10:12:00.375Z,25.50
2018-10-09T10:14:29.631Z,24.75
2018-10-09T10:16:58.862Z,27.75
2018-10-09T10:19:28.166Z,25.25
2018-10-09T10:21:57.412Z,23.25
2018-10-09T10:24:26.705Z,19.25
2018-10-09T10:26:55.944Z,17.00
2018-10-09T10:29:25.125Z,19.75
2018-10-09T10:31:54.379Z,18.50
2018-10-09T10:34:23.589Z,18.25
2018-10-09T10:36:52.842Z,18.25
2018-10-09T10:39:22.122Z,22.25
2018-10-09T10:41:51.360Z,21.75
2018-10-09T10:44:20.672Z,21.50
2018-10-09T10:46:49.907Z,21.75
2018-10-09T10:49:19.141Z,22.00
2018-10-09T10:51:48.333Z,19.75
2018-10-09T10:54:17.664Z,24.00
2018-10-09T10:56:46.887Z,20.00
2018-10-09T10:59:16.108Z,17.75
2018-10-09T11:01:45.409Z,24.00
2018-10-09T11:04:14.797Z,23.25
2018-10-09T11:06:44.021Z,21.75
2018-10-09T11:09:13.328Z,20.00
2018-10-09T11:11:42.606Z,21.75
2018-10-09T11:14:11.861Z,20.00
2018-10-09T11:16:41.109Z,20.00
2018-10-09T11:19:10.366Z,23.00
2018-10-09T11:21:39.701Z,23.75
2018-10-09T11:24:08.947Z,20.25
2018-10-09T11:26:38.170Z,20.00
2018-10-09T11:29:07.406Z,20.25
2018-10-09T11:31:36.650Z,18.25
2018-10-09T11:34:05.892Z,18.50
2018-10-09T11:36:35.316Z,17.25
2018-10-09T11:39:06.375Z,15.50
2018-10-09T11:41:35.601Z,15.50
2018-10-09T11:44:04.886Z,15.00
2018-10-09T11:46:35.001Z,11.25
2018-10-09T11:49:04.265Z,10.50
2018-10-09T11:51:33.502Z,13.25
2018-10-09T11:54:02.890Z,12.00
2018-10-09T11:56:32.098Z,10.75
2018-10-09T11:59:01.432Z,12.75
2018-10-09T12:01:30.608Z,15.25
2018-10-09T12:03:59.848Z,15.00
2018-10-09T12:06:29.150Z,15.00
2018-10-09T12:08:58.381Z,11.00
2018-10-09T12:11:27.752Z,12.75
2018-10-09T12:13:57.007Z,15.00
2018-10-09T12:16:26.255Z,11.00
2018-10-09T12:18:55.533Z,10.75
2018-10-09T12:21:24.811Z,14.25
2018-10-09T12:23:53.986Z,11.25
2018-10-09T12:26:23.270Z,12.75
2018-10-09T12:28:52.499Z,11.00
2018-10-09T12:31:21.775Z,11.25
2018-10-09T12:33:50.988Z,10.75
2018-10-09T12:36:20.211Z,10.25
2018-10-09T12:38:49.431Z,11.00
2018-10-09T12:41:18.596Z,11.25
2018-10-09T12:43:47.824Z,14.00
2018-10-09T12:46:16.983Z,11.50
2018-10-09T12:48:46.247Z,11.25
2018-10-09T12:51:15.493Z,11.75
2018-10-09T12:53:44.673Z,11.25
2018-10-09T12:56:14.751Z,9.00
2018-10-09T12:58:44.060Z,12.75
2018-10-09T13:01:13.179Z,13.00
2018-10-09T13:03:42.349Z,12.00
2018-10-09T13:06:11.591Z,13.00
2018-10-09T13:08:40.885Z,12.00
2018-10-09T13:11:10.059Z,12.25
2018-10-09T13:13:39.309Z,12.25
2018-10-09T13:16:08.523Z,17.25
2018-10-09T13:18:37.742Z,12.25
2018-10-09T13:21:07.399Z,16.00
2018-10-09T13:23:36.471Z,14.25
2018-10-09T13:26:05.674Z,12.25
2018-10-09T13:28:34.876Z,11.75
2018-10-09T13:31:04.134Z,17.00
2018-10-09T13:33:33.268Z,14.25
2018-10-09T13:36:02.512Z,13.75
2018-10-09T13:38:31.734Z,13.00
2018-10-09T13:41:00.953Z,9.75
2018-10-09T13:43:30.206Z,13.25
2018-10-09T13:45:59.399Z,10.75
2018-10-09T13:48:28.600Z,13.00
2018-10-09T13:50:57.910Z,12.50
2018-10-09T13:53:27.054Z,11.75
2018-10-09T13:55:56.246Z,8.25
2018-10-09T13:58:25.435Z,10.50
2018-10-09T14:00:54.649Z,11.00
2018-10-09T14:03:23.845Z,11.75
2018-10-09T14:05:53.170Z,10.75
2018-10-09T14:08:22.425Z,10.25
2018-10-09T14:10:51.612Z,11.00
2018-10-09T14:13:20.825Z,12.50
2018-10-09T14:15:50.006Z,12.00
2018-10-09T14:18:19.244Z,11.00
2018-10-09T14:20:49.085Z,13.25
2018-10-09T14:23:20.021Z,13.75
2018-10-09T14:25:49.292Z,12.00
2018-10-09T14:28:18.523Z,11.25
2018-10-09T14:30:47.694Z,11.75
2018-10-09T14:33:16.937Z,11.00
2018-10-09T14:35:46.142Z,12.75
2018-10-09T14:38:15.387Z,10.75
2018-10-09T14:40:44.752Z,11.50
2018-10-09T14:43:14.018Z,12.00
2018-10-09T14:45:43.257Z,12.75
2018-10-09T14:48:12.504Z,12.00
2018-10-09T14:50:41.728Z,11.75
2018-10-09T14:53:11.044Z,11.00
2018-10-09T14:55:40.278Z,12.00
2018-10-09T14:58:09.603Z,12.75
2018-10-09T15:00:38.834Z,11.00
2018-10-09T15:03:08.065Z,14.75
2018-10-09T15:05:37.266Z,11.75
2018-10-09T15:08:06.802Z,11.00
2018-10-09T15:10:36.013Z,10.50
2018-10-09T15:13:05.416Z,14.00
2018-10-09T15:15:34.585Z,13.25
2018-10-09T15:18:03.781Z,13.00
2018-10-09T15:20:32.955Z,12.50
2018-10-09T15:23:02.501Z,12.25
2018-10-09T15:25:32.149Z,19.25
2018-10-09T15:28:01.407Z,17.25
2018-10-09T15:30:30.638Z,17.25
2018-10-09T15:32:59.890Z,11.75
2018-10-09T15:35:29.281Z,11.00
2018-10-09T15:37:58.431Z,13.50
2018-10-09T15:40:27.658Z,12.50
2018-10-09T15:42:56.878Z,12.25
2018-10-09T15:45:26.079Z,12.00
2018-10-09T15:47:55.320Z,12.00
2018-10-09T15:50:24.557Z,12.25
2018-10-09T15:52:54.104Z,10.00
2018-10-09T15:55:23.298Z,11.50
2018-10-09T15:57:52.562Z,13.00
2018-10-09T16:00:21.890Z,10.00
2018-10-09T16:02:51.165Z,10.25
2018-10-09T16:05:20.415Z,11.50
2018-10-09T16:07:49.744Z,9.75
2018-10-09T16:10:18.930Z,10.75
2018-10-09T16:12:48.143Z,10.75
2018-10-09T16:15:17.437Z,10.50
2018-10-09T16:17:46.652Z,11.25
2018-10-09T16:20:15.891Z,10.75
2018-10-09T16:22:45.170Z,10.50
2018-10-09T16:25:14.371Z,10.25
2018-10-09T16:27:43.587Z,11.50
2018-10-09T16:30:12.773Z,10.00
2018-10-09T16:32:42.126Z,10.00
2018-10-09T16:35:11.201Z,9.00
2018-10-09T16:37:40.415Z,9.75
2018-10-09T16:40:09.732Z,9.00
2018-10-09T16:42:38.957Z,6.50
2018-10-09T16:45:08.210Z,6.00
2018-10-09T16:47:37.398Z,7.75
2018-10-09T16:50:06.602Z,6.00
2018-10-09T16:52:35.773Z,7.75
2018-10-09T16:55:05.406Z,8.00
2018-10-09T16:57:34.589Z,8.00
2018-10-09T17:00:03.894Z,6.00
2018-10-09T17:02:33.103Z,8.00
2018-10-09T17:05:02.318Z,6.50
2018-10-09T17:07:31.537Z,8.00
2018-10-09T17:10:00.783Z,8.00
2018-10-09T17:12:30.102Z,8.75
2018-10-09T17:15:00.388Z,7.25
2018-10-09T17:17:31.087Z,9.00
2018-10-09T17:20:00.254Z,7.50
2018-10-09T17:22:29.560Z,7.75
2018-10-09T17:24:58.672Z,8.50
2018-10-09T17:27:27.882Z,8.50
2018-10-09T17:29:59.265Z,11.25
2018-10-09T17:32:28.587Z,11.00
2018-10-09T17:34:57.759Z,14.00
2018-10-09T17:37:27.035Z,16.50
2018-10-09T17:39:56.343Z,14.00
2018-10-09T17:42:25.667Z,14.75
2018-10-09T17:44:54.899Z,15.75
2018-10-09T17:47:24.213Z,17.25
2018-10-09T17:49:53.418Z,17.25
2018-10-09T17:52:22.623Z,18.75
2018-10-09T17:54:51.825Z,16.00
2018-10-09T17:57:21.090Z,19.75
2018-10-09T17:59:50.315Z,27.00
2018-10-09T18:02:19.530Z,31.00
2018-10-09T18:04:48.785Z,27.50
2018-10-09T18:07:18.066Z,30.25
2018-10-09T18:09:47.395Z,24.75
2018-10-09T18:12:16.723Z,27.50
2018-10-09T18:17:25.939Z,33.50
2018-10-09T18:19:55.114Z,33.75
2018-10-09T18:22:24.387Z,26.50
2018-10-09T18:24:53.607Z,27.75
2018-10-09T18:27:22.982Z,33.00
2018-10-09T18:29:52.161Z,30.25
2018-10-09T18:32:21.564Z,31.25
2018-10-09T18:34:50.759Z,29.75
2018-10-09T18:37:20.067Z,31.75
2018-10-09T18:39:49.354Z,29.00
2018-10-09T18:42:18.613Z,28.50
2018-10-09T18:44:48.403Z,31.50
2018-10-09T18:47:22.705Z,27.25
2018-10-09T18:49:51.983Z,26.75
2018-10-09T18:52:21.502Z,28.50
2018-10-09T18:54:50.726Z,28.00
2018-10-09T18:57:19.922Z,30.50
2018-10-09T18:59:49.244Z,31.00
2018-10-09T19:02:18.473Z,29.25
2018-10-09T19:04:47.762Z,31.00
2018-10-09T19:07:16.905Z,26.50
2018-10-09T19:09:46.108Z,31.00
2018-10-09T19:12:15.318Z,31.50
2018-10-09T19:14:44.489Z,28.50
2018-10-09T19:17:13.674Z,32.00
2018-10-09T19:19:42.844Z,34.00
2018-10-09T19:22:12.011Z,31.75
2018-10-09T19:24:41.229Z,31.75
2018-10-09T19:27:10.756Z,33.25
2018-10-09T19:29:40.278Z,32.75
2018-10-09T19:32:09.438Z,33.50
2018-10-09T19:34:38.588Z,31.25
2018-10-09T19:37:07.724Z,31.25
2018-10-09T19:39:36.893Z,31.75
2018-10-09T19:42:06.005Z,31.25
2018-10-09T19:44:35.180Z,31.00
2018-10-09T19:47:04.379Z,34.00
2018-10-09T19:49:33.618Z,33.00
2018-10-09T19:52:02.971Z,32.00
2018-10-09T19:54:33.688Z,31.75
2018-10-09T19:57:02.842Z,31.50
2018-10-09T19:59:32.100Z,32.00
2018-10-09T20:02:01.271Z,32.00
2018-10-09T20:04:30.418Z,32.00
2018-10-09T20:06:59.630Z,30.25
2018-10-09T20:09:28.835Z,29.25
2018-10-09T20:11:57.998Z,32.00
2018-10-09T20:14:27.322Z,28.50
2018-10-09T20:16:56.722Z,26.50
2018-10-09T20:19:25.922Z,29.00
2018-10-09T20:21:55.068Z,27.00
2018-10-09T20:24:24.250Z,29.50
2018-10-09T20:26:53.433Z,27.00
2018-10-09T20:29:22.585Z,27.00
2018-10-09T20:31:51.721Z,29.00
2018-10-09T20:34:20.910Z,27.75
2018-10-09T20:36:50.129Z,27.25
2018-10-09T20:39:19.321Z,29.25
2018-10-09T20:41:48.549Z,27.75
2018-10-09T20:44:17.713Z,24.00
2018-10-09T20:46:46.871Z,29.50
2018-10-09T20:49:16.059Z,27.75
2018-10-09T20:51:45.451Z,29.50
2018-10-09T20:54:14.574Z,32.25
2018-10-09T20:56:43.779Z,26.00
2018-10-09T20:59:12.937Z,28.25
2018-10-09T21:01:42.072Z,29.50
2018-10-09T21:04:11.210Z,29.50
2018-10-09T21:06:40.376Z,33.25
2018-10-09T21:09:09.503Z,32.75
2018-10-09T21:11:38.738Z,34.25
2018-10-09T21:14:07.873Z,39.00
2018-10-09T21:16:37.049Z,31.50
2018-10-09T21:19:06.221Z,32.75
2018-10-09T21:21:35.430Z,33.25
2018-10-09T21:24:04.572Z,32.75
2018-10-09T21:26:33.758Z,32.00
2018-10-09T21:29:02.902Z,30.00
2018-10-09T21:31:32.094Z,33.00
2018-10-09T21:34:01.232Z,35.00
2018-10-09T21:36:30.388Z,33.50
2018-10-09T21:38:59.540Z,33.75
2018-10-09T21:41:28.711Z,32.00
2018-10-09T21:43:57.846Z,34.25
2018-10-09T21:46:27.005Z,34.75
2018-10-09T21:48:56.149Z,33.75
2018-10-09T21:51:25.305Z,33.00
2018-10-09T21:53:54.485Z,34.75
2018-10-09T21:56:23.691Z,32.25
2018-10-09T21:58:52.884Z,34.25
2018-10-09T22:01:22.116Z,33.50
2018-10-09T22:03:51.278Z,35.75
2018-10-09T22:06:20.438Z,35.25
2018-10-09T22:08:49.580Z,36.25
2018-10-09T22:11:18.733Z,36.75
2018-10-09T22:13:47.886Z,33.00
2018-10-09T22:16:17.061Z,33.75
2018-10-09T22:18:46.246Z,33.50
2018-10-09T22:21:15.455Z,33.00
2018-10-09T22:23:44.609Z,32.25
2018-10-09T22:26:13.778Z,34.25
2018-10-09T22:28:42.945Z,32.75
2018-10-09T22:31:12.071Z,32.25
2018-10-09T22:33:41.217Z,34.75
2018-10-09T22:36:10.342Z,35.00
2018-10-09T22:38:39.629Z,33.75
2018-10-09T22:41:08.733Z,32.75
2018-10-09T22:43:37.926Z,33.75
2018-10-09T22:46:07.672Z,34.25
2018-10-09T22:48:36.872Z,33.75
2018-10-09T22:51:06.059Z,32.75
2018-10-09T22:53:35.265Z,33.75
2018-10-09T22:56:04.485Z,35.25
2018-10-09T22:58:33.685Z,36.75
2018-10-09T23:01:02.890Z,33.25
2018-10-09T23:03:32.190Z,30.75
2018-10-09T23:06:01.437Z,37.25
2018-10-09T23:08:30.646Z,34.25
2018-10-09T23:10:59.835Z,36.75
2018-10-09T23:13:28.915Z,32.25
2018-10-09T23:15:58.232Z,38.25
2018-10-09T23:18:27.411Z,36.50
2018-10-09T23:20:56.477Z,37.00
2018-10-09T23:23:25.560Z,36.50
2018-10-09T23:25:54.630Z,33.75
2018-10-09T23:28:23.704Z,38.25
2018-10-09T23:30:52.799Z,37.00
2018-10-09T23:33:21.948Z,36.75
2018-10-09T23:35:51.044Z,37.75
2018-10-09T23:38:20.295Z,37.50
2018-10-09T23:40:49.386Z,36.00
2018-10-09T23:43:18.496Z,37.00
2018-10-09T23:45:48.411Z,37.00
2018-10-09T23:48:17.526Z,37.75
2018-10-09T23:50:46.656Z,37.50
2018-10-09T23:53:15.776Z,37.25
2018-10-09T23:55:44.889Z,37.00
2018-10-09T23:58:14.013Z,39.00
